createdAt,value
2023-04-03T00:00:44.966Z,57.20
2023-04-03T00:03:15.384Z,57.10
2023-04-03T00:05:44.389Z,57.80
2023-04-03T00:08:13.312Z,57.50
2023-04-03T00:10:45.568Z,57.50
2023-04-03T00:13:14.957Z,58.10
2023-04-03T00:15:44.856Z,57.20
2023-04-03T00:18:15.404Z,57.50
2023-04-03T00:20:44.422Z,57.20
2023-04-03T00:23:13.430Z,57.40
2023-04-03T00:25:44.901Z,58.10
2023-04-03T00:28:14.864Z,57.20
2023-04-03T00:30:44.256Z,57.40
2023-04-03T00:33:15.999Z,58.00
2023-04-03T00:35:45.803Z,57.50
2023-04-03T00:38:16.814Z,57.40
2023-04-03T00:40:50.589Z,57.60
2023-04-03T00:43:23.189Z,57.60
2023-04-03T00:45:54.880Z,57.70
2023-04-03T00:48:30.178Z,57.60
2023-04-03T00:51:00.563Z,58.10
2023-04-03T00:53:34.120Z,57.50
2023-04-03T00:56:03.286Z,57.60
2023-04-03T00:58:41.809Z,58.10
2023-04-03T01:01:19.381Z,57.50
2023-04-03T01:03:50.074Z,57.30
2023-04-03T01:06:26.617Z,57.40
2023-04-03T01:08:56.950Z,57.40
2023-04-03T01:11:27.258Z,57.80
2023-04-03T01:13:56.981Z,57.60
2023-04-03T01:16:29.253Z,57.20
2023-04-03T01:19:02.211Z,57.00
2023-04-03T01:22:12.180Z,57.10
2023-04-03T01:24:42.607Z,57.10
2023-04-03T01:27:14.600Z,57.00
2023-04-03T01:29:45.590Z,57.00
2023-04-03T01:32:15.911Z,57.20
2023-04-03T01:34:44.792Z,57.00
2023-04-03T01:37:17.256Z,57.00
2023-04-03T01:39:46.117Z,57.40
2023-04-03T01:42:15.076Z,57.50
2023-04-03T01:44:45.938Z,57.80
2023-04-03T01:47:16.047Z,57.30
2023-04-03T01:49:45.169Z,57.40
2023-04-03T01:52:14.106Z,57.30
2023-04-03T01:54:43.718Z,57.30
2023-04-03T01:57:12.971Z,57.70
2023-04-03T01:59:43.909Z,57.40
2023-04-03T02:02:13.828Z,57.50
2023-04-03T02:04:45.046Z,57.40
2023-04-03T02:07:14.432Z,57.00
2023-04-03T02:09:46.193Z,57.20
2023-04-03T02:12:15.993Z,57.10
2023-04-03T02:14:47.922Z,57.10
2023-04-03T02:17:17.630Z,57.30
2023-04-03T02:19:48.843Z,57.10
2023-04-03T02:22:18.128Z,57.50
2023-04-03T02:24:47.023Z,57.10
2023-04-03T02:27:17.309Z,56.90
2023-04-03T02:29:46.494Z,57.40
2023-04-03T02:32:15.743Z,56.80
2023-04-03T02:34:45.376Z,57.00
2023-04-03T02:37:17.856Z,57.00
2023-04-03T02:39:48.725Z,57.10
2023-04-03T02:42:17.598Z,57.40
2023-04-03T02:44:46.264Z,57.00
2023-04-03T02:47:14.796Z,56.90
2023-04-03T02:49:44.786Z,56.90
2023-04-03T02:52:13.348Z,57.10
2023-04-03T02:54:43.475Z,56.80
2023-04-03T02:57:13.613Z,56.70
2023-04-03T02:59:42.281Z,56.70
2023-04-03T03:02:13.838Z,56.70
2023-04-03T03:04:43.902Z,57.00
2023-04-03T03:07:13.367Z,56.60
2023-04-03T03:09:44.723Z,56.80
2023-04-03T03:12:13.892Z,56.70
2023-04-03T03:14:46.191Z,57.00
2023-04-03T03:17:14.820Z,56.60
2023-04-03T03:19:43.747Z,57.10
2023-04-03T03:22:12.554Z,56.90
2023-04-03T03:24:42.392Z,57.00
2023-04-03T03:27:11.409Z,56.90
2023-04-03T03:29:40.085Z,57.00
2023-04-03T03:32:08.818Z,57.00
2023-04-03T03:34:37.360Z,57.00
2023-04-03T03:37:05.862Z,57.00
2023-04-03T03:39:34.286Z,56.90
2023-04-03T03:42:04.412Z,56.80
2023-04-03T03:44:33.095Z,56.70
2023-04-03T03:47:01.901Z,56.90
2023-04-03T03:49:31.431Z,56.80
2023-04-03T03:52:00.995Z,56.80
2023-04-03T03:54:29.761Z,56.60
2023-04-03T03:56:58.431Z,56.70
2023-04-03T03:59:28.908Z,56.60
2023-04-03T04:01:57.967Z,56.70
2023-04-03T04:04:27.178Z,56.60
2023-04-03T04:06:57.264Z,56.70
2023-04-03T04:09:27.198Z,56.50
2023-04-03T04:11:56.630Z,56.60
2023-04-03T04:14:26.477Z,56.50
2023-04-03T04:16:58.019Z,56.60
2023-04-03T04:19:29.399Z,56.60
2023-04-03T04:21:58.948Z,56.50
2023-04-03T04:24:28.288Z,56.20
2023-04-03T04:26:59.017Z,56.40
2023-04-03T04:29:28.253Z,56.50
2023-04-03T04:31:58.682Z,56.60
2023-04-03T04:34:27.359Z,56.40
2023-04-03T04:36:55.912Z,56.50
2023-04-03T04:39:25.888Z,56.60
2023-04-03T04:41:58.108Z,56.40
2023-04-03T04:44:28.907Z,56.70
2023-04-03T04:47:01.735Z,56.40
2023-04-03T04:49:30.351Z,56.40
2023-04-03T04:51:58.837Z,56.40
2023-04-03T04:54:31.520Z,56.70
2023-04-03T04:57:00.722Z,56.40
2023-04-03T04:59:30.818Z,56.40
2023-04-03T05:02:02.182Z,56.30
2023-04-03T05:04:31.356Z,56.30
2023-04-03T05:07:06.569Z,56.30
2023-04-03T05:09:38.333Z,56.40
2023-04-03T05:12:07.772Z,56.50
2023-04-03T05:14:43.485Z,56.50
2023-04-03T05:17:44.258Z,56.60
2023-04-03T05:20:15.945Z,56.40
2023-04-03T05:22:47.216Z,56.40
2023-04-03T05:25:16.722Z,56.50
2023-04-03T05:27:46.458Z,56.60
2023-04-03T05:30:17.237Z,56.50
2023-04-03T05:32:48.229Z,56.50
2023-04-03T05:35:26.535Z,56.50
2023-04-03T05:37:59.034Z,56.60
2023-04-03T05:40:27.775Z,56.60
2023-04-03T05:43:23.159Z,56.70
2023-04-03T05:45:53.462Z,57.30
2023-04-03T05:48:25.226Z,56.60
2023-04-03T05:50:55.728Z,56.80
2023-04-03T05:53:31.706Z,56.60
2023-04-03T05:56:03.418Z,56.80
2023-04-03T05:58:35.766Z,56.80
2023-04-03T06:01:04.605Z,56.90
2023-04-03T06:03:34.885Z,56.90
2023-04-03T06:06:06.762Z,57.10
2023-04-03T06:08:36.029Z,56.90
2023-04-03T06:11:04.530Z,56.90
2023-04-03T06:13:32.931Z,57.00
2023-04-03T06:16:01.809Z,57.00
2023-04-03T06:18:30.212Z,57.10
2023-04-03T06:21:01.878Z,57.00
2023-04-03T06:23:30.353Z,56.90
2023-04-03T06:25:59.391Z,57.00
2023-04-03T06:28:28.322Z,57.10
2023-04-03T06:30:56.804Z,57.10
2023-04-03T06:33:25.459Z,57.20
2023-04-03T06:36:00.395Z,57.20
2023-04-03T06:38:28.798Z,57.20
2023-04-03T06:40:57.156Z,57.20
2023-04-03T06:43:25.717Z,57.30
2023-04-03T06:45:55.394Z,57.20
2023-04-03T06:48:24.251Z,57.20
2023-04-03T06:50:52.649Z,57.20
2023-04-03T06:53:22.453Z,57.20
2023-04-03T06:55:51.106Z,57.50
2023-04-03T06:58:21.742Z,57.30
2023-04-03T07:00:51.156Z,57.20
2023-04-03T07:03:19.610Z,57.20
2023-04-03T07:05:47.937Z,57.10
2023-04-03T07:08:16.398Z,57.00
2023-04-03T07:10:46.309Z,57.00
2023-04-03T07:13:14.689Z,56.90
2023-04-03T07:15:43.135Z,56.70
2023-04-03T07:18:11.499Z,56.70
2023-04-03T07:20:41.249Z,56.80
2023-04-03T07:23:09.645Z,56.80
2023-04-03T07:25:38.805Z,56.80
2023-04-03T07:28:09.267Z,56.70
2023-04-03T07:30:44.587Z,56.70
2023-04-03T07:33:14.143Z,56.90
2023-04-03T07:35:43.398Z,56.70
2023-04-03T07:38:12.367Z,56.50
2023-04-03T07:40:40.965Z,56.50
2023-04-03T07:43:10.669Z,56.40
2023-04-03T07:45:40.435Z,56.40
2023-04-03T07:48:09.254Z,56.50
2023-04-03T07:50:37.703Z,56.40
2023-04-03T07:53:06.818Z,56.00
2023-04-03T07:55:35.338Z,55.90
2023-04-03T07:58:04.312Z,55.90
2023-04-03T08:00:33.977Z,56.00
2023-04-03T08:03:02.730Z,56.10
2023-04-03T08:05:31.221Z,56.20
2023-04-03T08:07:59.583Z,56.10
2023-04-03T08:10:27.920Z,56.60
2023-04-03T08:12:56.269Z,56.10
2023-04-03T08:15:24.699Z,55.90
2023-04-03T08:17:54.581Z,56.00
2023-04-03T08:20:23.222Z,55.90
2023-04-03T08:22:51.511Z,56.00
2023-04-03T08:25:20.088Z,56.10
2023-04-03T08:27:48.634Z,55.90
2023-04-03T08:30:17.071Z,56.10
2023-04-03T08:32:45.966Z,56.20
2023-04-03T08:35:16.120Z,55.90
2023-04-03T08:37:44.468Z,55.90
2023-04-03T08:40:18.731Z,55.80
2023-04-03T08:42:59.639Z,55.80
2023-04-03T08:45:44.192Z,55.90
2023-04-03T08:48:18.278Z,55.80
2023-04-03T08:50:53.089Z,56.00
2023-04-03T08:53:27.781Z,56.10
2023-04-03T08:55:58.991Z,55.90
2023-04-03T08:58:30.815Z,55.80
2023-04-03T09:01:03.810Z,55.60
2023-04-03T09:03:34.671Z,55.60
2023-04-03T09:06:09.194Z,55.40
2023-04-03T09:08:43.183Z,55.20
2023-04-03T09:11:23.031Z,55.20
2023-04-03T09:13:59.821Z,55.20
2023-04-03T09:16:38.648Z,55.40
2023-04-03T09:19:20.738Z,55.10
2023-04-03T09:21:50.707Z,54.90
2023-04-03T09:24:20.280Z,54.90
2023-04-03T09:26:56.027Z,54.80
2023-04-03T09:29:26.001Z,54.70
2023-04-03T09:31:59.910Z,54.80
2023-04-03T09:34:30.767Z,54.60
2023-04-03T09:37:06.810Z,54.80
2023-04-03T09:39:52.574Z,55.00
2023-04-03T09:42:23.520Z,55.20
2023-04-03T09:44:58.451Z,55.40
2023-04-03T09:47:29.170Z,55.30
2023-04-03T09:50:24.284Z,55.30
2023-04-03T09:52:54.227Z,54.80
2023-04-03T09:55:29.730Z,55.30
2023-04-03T09:58:01.628Z,55.10
2023-04-03T10:00:36.394Z,54.80
2023-04-03T10:03:06.190Z,54.90
2023-04-03T10:05:38.399Z,54.80
2023-04-03T10:08:22.789Z,54.80
2023-04-03T10:11:11.086Z,54.50
2023-04-03T10:13:53.614Z,54.10
2023-04-03T10:16:28.590Z,54.40
2023-04-03T10:19:21.657Z,54.90
2023-04-03T10:21:56.668Z,54.90
2023-04-03T10:24:37.354Z,55.30
2023-04-03T10:27:13.519Z,54.90
2023-04-03T10:29:49.695Z,54.50
2023-04-03T10:32:51.474Z,54.30
2023-04-03T10:35:44.534Z,54.10
2023-04-03T10:38:22.680Z,53.70
2023-04-03T10:41:02.080Z,53.60
2023-04-03T10:43:38.950Z,53.30
2023-04-03T10:46:16.643Z,53.20
2023-04-03T10:49:12.535Z,53.80
2023-04-03T10:51:46.562Z,53.90
2023-04-03T10:54:19.813Z,54.40
2023-04-03T10:57:04.389Z,54.30
2023-04-03T10:59:44.180Z,53.80
2023-04-03T11:02:23.225Z,53.60
2023-04-03T11:04:58.286Z,53.80
2023-04-03T11:07:32.786Z,54.00
2023-04-03T11:10:07.591Z,53.40
2023-04-03T11:12:47.908Z,53.00
2023-04-03T11:15:21.824Z,52.50
2023-04-03T11:17:55.691Z,52.50
2023-04-03T11:20:29.608Z,52.50
2023-04-03T11:23:05.090Z,52.40
2023-04-03T11:25:37.039Z,52.50
2023-04-03T11:28:12.096Z,52.60
2023-04-03T11:30:49.380Z,52.90
2023-04-03T11:33:50.396Z,52.40
2023-04-03T11:36:29.528Z,51.60
2023-04-03T11:39:12.248Z,51.90
2023-04-03T11:41:40.990Z,51.90
2023-04-03T11:44:33.002Z,51.80
2023-04-03T11:47:03.329Z,51.30
2023-04-03T11:50:01.645Z,51.10
2023-04-03T11:52:59.344Z,50.60
2023-04-03T11:56:06.603Z,50.80
2023-04-03T11:58:38.040Z,51.30
2023-04-03T12:01:12.826Z,51.50
2023-04-03T12:04:14.977Z,52.10
2023-04-03T12:07:15.893Z,52.10
2023-04-03T12:10:31.127Z,52.50
2023-04-03T12:13:16.402Z,50.90
2023-04-03T12:15:55.286Z,51.10
2023-04-03T12:18:59.457Z,50.80
2023-04-03T12:22:16.958Z,50.10
2023-04-03T12:24:49.435Z,50.10
2023-04-03T12:27:37.165Z,50.60
2023-04-03T12:30:21.180Z,50.30
2023-04-03T12:33:19.820Z,50.60
2023-04-03T12:36:03.703Z,50.80
2023-04-03T12:39:04.325Z,51.10
2023-04-03T12:41:41.056Z,50.80
2023-04-03T12:44:41.494Z,50.50
2023-04-03T12:47:26.572Z,50.20
2023-04-03T12:49:56.216Z,50.50
2023-04-03T12:52:39.459Z,50.50
2023-04-03T12:55:18.251Z,50.30
2023-04-03T12:57:47.218Z,50.40
2023-04-03T13:00:35.315Z,50.40
2023-04-03T13:03:06.182Z,50.30
2023-04-03T13:05:37.240Z,50.60
2023-04-03T13:08:08.853Z,50.80
2023-04-03T13:10:56.469Z,50.90
2023-04-03T13:13:27.345Z,51.00
2023-04-03T13:15:56.712Z,51.10
2023-04-03T13:18:29.203Z,51.20
2023-04-03T13:21:05.238Z,51.10
2023-04-03T13:23:36.927Z,50.40
2023-04-03T13:26:07.631Z,50.20
2023-04-03T13:28:37.020Z,50.10
2023-04-03T13:31:12.718Z,50.30
2023-04-03T13:33:43.949Z,50.10
2023-04-03T13:36:22.964Z,50.00
2023-04-03T13:39:02.712Z,50.50
2023-04-03T13:41:35.585Z,50.40
2023-04-03T13:44:32.648Z,50.00
2023-04-03T13:47:03.509Z,49.20
2023-04-03T13:49:36.522Z,49.40
2023-04-03T13:52:24.381Z,49.30
2023-04-03T13:54:57.403Z,49.50
2023-04-03T13:57:28.166Z,50.00
2023-04-03T13:59:56.894Z,49.20
2023-04-03T14:02:34.089Z,48.80
2023-04-03T14:05:05.041Z,48.80
2023-04-03T14:07:33.562Z,49.30
2023-04-03T14:10:01.885Z,49.60
2023-04-03T14:12:37.225Z,48.90
2023-04-03T14:15:18.583Z,49.20
2023-04-03T14:17:47.098Z,49.40
2023-04-03T14:20:18.597Z,49.10
2023-04-03T14:22:47.508Z,48.90
2023-04-03T14:25:16.385Z,49.00
2023-04-03T14:27:49.860Z,49.10
2023-04-03T14:30:21.841Z,48.30
2023-04-03T14:32:50.661Z,48.90
2023-04-03T14:35:20.754Z,49.10
2023-04-03T14:37:50.437Z,49.30
2023-04-03T14:40:22.652Z,49.30
2023-04-03T14:42:56.026Z,49.60
2023-04-03T14:45:25.055Z,49.60
2023-04-03T14:47:56.366Z,49.00
2023-04-03T14:50:28.272Z,49.40
2023-04-03T14:52:59.776Z,49.30
2023-04-03T14:55:29.259Z,49.50
2023-04-03T14:57:59.341Z,49.80
2023-04-03T15:00:27.795Z,49.80
2023-04-03T15:02:56.474Z,49.90
2023-04-03T15:05:24.978Z,49.90
2023-04-03T15:07:57.414Z,50.10
2023-04-03T15:10:28.803Z,49.80
2023-04-03T15:12:58.809Z,49.20
2023-04-03T15:15:32.086Z,49.20
2023-04-03T15:18:00.790Z,49.30
2023-04-03T15:20:34.172Z,49.60
2023-04-03T15:23:03.625Z,50.00
2023-04-03T15:25:32.321Z,49.80
2023-04-03T15:28:02.835Z,49.70
2023-04-03T15:30:32.119Z,49.80
2023-04-03T15:33:01.162Z,49.60
2023-04-03T15:35:29.588Z,49.50
2023-04-03T15:37:57.990Z,49.70
2023-04-03T15:40:26.710Z,50.00
2023-04-03T15:42:55.058Z,49.80
2023-04-03T15:45:24.984Z,49.60
2023-04-03T15:47:53.472Z,49.70
2023-04-03T15:50:23.813Z,49.80
2023-04-03T15:52:55.317Z,50.60
2023-04-03T15:55:24.093Z,50.00
2023-04-03T15:57:53.796Z,50.10
2023-04-03T16:00:24.533Z,50.10
2023-04-03T16:02:58.519Z,50.00
2023-04-03T16:05:27.324Z,49.90
2023-04-03T16:07:56.425Z,49.70
2023-04-03T16:10:25.992Z,49.60
2023-04-03T16:12:54.511Z,49.60
2023-04-03T16:15:25.207Z,49.00
2023-04-03T16:17:54.868Z,49.30
2023-04-03T16:20:23.669Z,49.50
2023-04-03T16:22:52.232Z,49.40
2023-04-03T16:25:21.455Z,49.30
2023-04-03T16:27:49.880Z,49.20
2023-04-03T16:30:18.556Z,49.20
2023-04-03T16:32:48.630Z,49.30
2023-04-03T16:35:17.131Z,49.30
2023-04-03T16:37:45.486Z,49.50
2023-04-03T16:40:14.351Z,49.60
2023-04-03T16:42:43.463Z,49.70
2023-04-03T16:45:12.436Z,49.70
2023-04-03T16:47:40.863Z,49.60
2023-04-03T16:50:11.892Z,49.60
2023-04-03T16:52:40.913Z,49.60
2023-04-03T16:55:10.921Z,49.60
2023-04-03T16:57:39.339Z,49.70
2023-04-03T17:00:09.863Z,49.70
2023-04-03T17:02:38.264Z,49.60
2023-04-03T17:05:07.858Z,49.80
2023-04-03T17:07:37.566Z,49.80
2023-04-03T17:10:07.457Z,49.50
2023-04-03T17:12:35.994Z,49.60
2023-04-03T17:15:04.767Z,49.40
2023-04-03T17:17:33.598Z,49.60
2023-04-03T17:20:02.181Z,49.50
2023-04-03T17:22:30.975Z,49.60
2023-04-03T17:25:00.945Z,49.60
2023-04-03T17:27:29.349Z,49.80
2023-04-03T17:29:57.870Z,49.70
2023-04-03T17:32:26.719Z,49.70
2023-04-03T17:34:55.393Z,49.50
2023-04-03T17:37:23.742Z,49.50
2023-04-03T17:39:52.023Z,49.50
2023-04-03T17:42:21.891Z,49.60
2023-04-03T17:44:50.258Z,49.70
2023-04-03T17:47:18.672Z,49.70
2023-04-03T17:49:47.036Z,49.80
2023-04-03T17:52:15.307Z,49.80
2023-04-03T17:54:43.857Z,49.70
2023-04-03T17:57:12.251Z,49.70
2023-04-03T17:59:41.968Z,49.80
2023-04-03T18:02:10.292Z,49.60
2023-04-03T18:04:38.776Z,49.70
2023-04-03T18:07:09.891Z,49.60
2023-04-03T18:09:40.957Z,49.60
2023-04-03T18:12:10.676Z,49.70
2023-04-03T18:14:41.819Z,49.80
2023-04-03T18:17:10.165Z,49.60
2023-04-03T18:19:38.705Z,49.60
2023-04-03T18:22:13.412Z,49.60
2023-04-03T18:24:43.622Z,49.90
2023-04-03T18:27:15.500Z,49.80
2023-04-03T18:29:50.528Z,49.80
2023-04-03T18:32:21.949Z,49.80
2023-04-03T18:34:50.503Z,49.90
2023-04-03T18:37:19.000Z,49.90
2023-04-03T18:39:47.521Z,50.00
2023-04-03T18:42:18.513Z,49.80
2023-04-03T18:44:52.926Z,49.90
2023-04-03T18:47:21.550Z,49.80
2023-04-03T18:49:50.046Z,49.60
2023-04-03T18:52:18.403Z,49.50
2023-04-03T18:54:46.789Z,49.50
2023-04-03T18:57:15.265Z,49.50
2023-04-03T18:59:43.767Z,49.60
2023-04-03T19:02:16.625Z,49.50
2023-04-03T19:04:46.425Z,49.50
2023-04-03T19:07:15.841Z,49.90
2023-04-03T19:09:44.528Z,49.80
2023-04-03T19:12:13.322Z,49.70
2023-04-03T19:14:42.095Z,49.70
2023-04-03T19:17:10.673Z,49.80
2023-04-03T19:19:40.868Z,49.70
2023-04-03T19:22:09.407Z,49.70
2023-04-03T19:24:38.316Z,49.80
2023-04-03T19:27:06.689Z,49.80
2023-04-03T19:29:35.125Z,49.90
2023-04-03T19:32:03.529Z,50.50
2023-04-03T19:34:31.849Z,49.90
2023-04-03T19:37:02.349Z,49.90
2023-04-03T19:39:35.118Z,50.00
2023-04-03T19:42:03.808Z,50.00
2023-04-03T19:44:33.539Z,50.00
2023-04-03T19:47:02.945Z,50.00
2023-04-03T19:49:31.759Z,49.90
2023-04-03T19:52:01.498Z,49.90
2023-04-03T19:54:29.895Z,49.70
2023-04-03T19:56:59.010Z,49.80
2023-04-03T19:59:28.241Z,50.00
2023-04-03T20:01:57.576Z,49.90
2023-04-03T20:04:26.166Z,49.90
2023-04-03T20:06:54.514Z,49.90
2023-04-03T20:09:24.316Z,49.90
2023-04-03T20:11:53.852Z,49.90
2023-04-03T20:14:22.357Z,49.90
2023-04-03T20:16:52.741Z,49.90
2023-04-03T20:19:26.939Z,49.80
2023-04-03T20:21:56.047Z,50.00
2023-04-03T20:24:28.909Z,49.90
2023-04-03T20:26:58.639Z,49.80
2023-04-03T20:29:27.835Z,49.80
2023-04-03T20:31:56.324Z,49.80
2023-04-03T20:34:24.708Z,49.70
2023-04-03T20:36:53.559Z,49.80
2023-04-03T20:39:24.550Z,49.80
2023-04-03T20:41:54.656Z,49.90
2023-04-03T20:44:23.402Z,50.10
2023-04-03T20:46:53.430Z,50.10
2023-04-03T20:49:23.318Z,50.50
2023-04-03T20:51:52.306Z,49.90
2023-04-03T20:54:21.769Z,50.00
2023-04-03T20:56:50.462Z,50.00
2023-04-03T20:59:20.848Z,50.10
2023-04-03T21:01:50.150Z,50.20
2023-04-03T21:04:26.746Z,50.10
2023-04-03T21:07:51.162Z,50.10
2023-04-03T21:11:16.218Z,50.10
2023-04-03T21:14:41.721Z,50.20
2023-04-03T21:17:09.761Z,50.10
2023-04-03T21:19:46.247Z,50.20
2023-04-03T21:22:16.404Z,50.20
2023-04-03T21:24:45.470Z,50.30
2023-04-03T21:27:14.023Z,50.30
2023-04-03T21:29:43.172Z,50.30
2023-04-03T21:32:12.130Z,50.90
2023-04-03T21:34:41.905Z,50.30
2023-04-03T21:37:11.883Z,50.30
2023-04-03T21:39:40.880Z,50.20
2023-04-03T21:42:09.189Z,50.10
2023-04-03T21:44:38.226Z,50.10
2023-04-03T21:47:07.649Z,50.20
2023-04-03T21:49:36.205Z,50.00
2023-04-03T21:52:06.282Z,50.00
2023-04-03T21:54:34.833Z,50.00
2023-04-03T21:57:03.148Z,50.10
2023-04-03T21:59:31.783Z,50.10
2023-04-03T22:02:00.672Z,50.40
2023-04-03T22:04:30.272Z,50.40
2023-04-03T22:06:59.728Z,50.40
2023-04-03T22:09:29.434Z,50.40
2023-04-03T22:11:57.696Z,50.30
2023-04-03T22:14:26.249Z,50.30
2023-04-03T22:16:54.815Z,50.40
2023-04-03T22:19:23.594Z,50.40
2023-04-03T22:21:52.835Z,50.70
2023-04-03T22:24:21.134Z,50.60
2023-04-03T22:26:50.740Z,50.70
2023-04-03T22:29:19.222Z,50.60
2023-04-03T22:31:47.566Z,50.60
2023-04-03T22:34:16.804Z,50.50
2023-04-03T22:36:45.443Z,50.40
2023-04-03T22:39:15.291Z,50.40
2023-04-03T22:41:45.302Z,50.40
2023-04-03T22:44:17.851Z,50.40
2023-04-03T22:46:46.353Z,50.40
2023-04-03T22:49:15.007Z,50.60
2023-04-03T22:51:43.280Z,50.60
2023-04-03T22:54:11.626Z,50.60
2023-04-03T22:56:39.968Z,50.60
2023-04-03T22:59:08.357Z,50.50
2023-04-03T23:01:39.515Z,50.50
2023-04-03T23:04:07.991Z,50.50
2023-04-03T23:06:36.761Z,50.50
2023-04-03T23:09:05.296Z,50.60
2023-04-03T23:11:33.662Z,50.60
2023-04-03T23:14:03.117Z,50.60
2023-04-03T23:16:31.479Z,50.70
2023-04-03T23:19:01.733Z,50.70
2023-04-03T23:21:30.006Z,51.00
2023-04-03T23:23:58.686Z,50.80
2023-04-03T23:26:27.073Z,50.80
2023-04-03T23:28:55.386Z,50.80
2023-04-03T23:31:25.850Z,50.80
2023-04-03T23:33:54.417Z,50.80
2023-04-03T23:36:24.077Z,50.80
2023-04-03T23:38:52.373Z,50.90
2023-04-03T23:41:20.970Z,50.80
2023-04-03T23:43:49.868Z,50.80
2023-04-03T23:46:18.392Z,50.90
2023-04-03T23:48:46.880Z,50.80
2023-04-03T23:51:15.286Z,51.00
2023-04-03T23:53:44.936Z,50.80
2023-04-03T23:56:13.303Z,50.80
2023-04-03T23:58:41.666Z,50.80
